sensor_id;sensor_type;location;lat;lon;timestamp;P1;durP1;ratioP1;P2;durP2;ratioP2
55292;SDS011;41157;53.560;10.098;2024-03-25T00:02:05;5.93;;;1.57;;
55292;SDS011;41157;53.560;10.098;2024-03-25T00:04:31;4.60;;;2.17;;
55292;SDS011;41157;53.560;10.098;2024-03-25T00:06:58;4.70;;;1.63;;
55292;SDS011;41157;53.560;10.098;2024-03-25T00:09:24;5.77;;;2.30;;
55292;SDS011;41157;53.560;10.098;2024-03-25T00:11:51;5.57;;;2.00;;
55292;SDS011;41157;53.560;10.098;2024-03-25T00:14:19;4.97;;;1.87;;
55292;SDS011;41157;53.560;10.098;2024-03-25T00:16:47;8.47;;;2.30;;
55292;SDS011;41157;53.560;10.098;2024-03-25T00:19:14;5.57;;;1.90;;
55292;SDS011;41157;53.560;10.098;2024-03-25T00:21:41;6.93;;;1.93;;
55292;SDS011;41157;53.560;10.098;2024-03-25T00:24:07;3.90;;;1.80;;
55292;SDS011;41157;53.560;10.098;2024-03-25T00:26:34;4.97;;;1.93;;
55292;SDS011;41157;53.560;10.098;2024-03-25T00:29:00;5.67;;;2.00;;
55292;SDS011;41157;53.560;10.098;2024-03-25T00:31:27;6.73;;;2.30;;
55292;SDS011;41157;53.560;10.098;2024-03-25T00:33:55;6.73;;;1.90;;
55292;SDS011;41157;53.560;10.098;2024-03-25T00:36:22;3.80;;;1.60;;
55292;SDS011;41157;53.560;10.098;2024-03-25T00:38:48;4.70;;;1.93;;
55292;SDS011;41157;53.560;10.098;2024-03-25T00:41:15;4.20;;;1.83;;
55292;SDS011;41157;53.560;10.098;2024-03-25T00:43:41;6.13;;;1.70;;
55292;SDS011;41157;53.560;10.098;2024-03-25T00:46:08;5.50;;;2.10;;
55292;SDS011;41157;53.560;10.098;2024-03-25T00:48:34;8.57;;;2.30;;
55292;SDS011;41157;53.560;10.098;2024-03-25T00:51:04;5.40;;;1.73;;
55292;SDS011;41157;53.560;10.098;2024-03-25T00:53:30;5.33;;;1.80;;
55292;SDS011;41157;53.560;10.098;2024-03-25T00:55:57;7.27;;;1.60;;
55292;SDS011;41157;53.560;10.098;2024-03-25T00:58:23;5.17;;;2.07;;
55292;SDS011;41157;53.560;10.098;2024-03-25T01:00:50;3.30;;;1.90;;
55292;SDS011;41157;53.560;10.098;2024-03-25T01:03:16;5.27;;;1.90;;
55292;SDS011;41157;53.560;10.098;2024-03-25T01:05:43;8.43;;;2.27;;
55292;SDS011;41157;53.560;10.098;2024-03-25T01:08:11;5.87;;;1.90;;
55292;SDS011;41157;53.560;10.098;2024-03-25T01:10:39;6.17;;;1.47;;
55292;SDS011;41157;53.560;10.098;2024-03-25T01:13:05;7.00;;;2.13;;
55292;SDS011;41157;53.560;10.098;2024-03-25T01:15:32;8.77;;;2.07;;
55292;SDS011;41157;53.560;10.098;2024-03-25T01:17:58;4.80;;;2.10;;
55292;SDS011;41157;53.560;10.098;2024-03-25T01:20:25;4.10;;;1.73;;
55292;SDS011;41157;53.560;10.098;2024-03-25T01:22:51;6.80;;;2.30;;
55292;SDS011;41157;53.560;10.098;2024-03-25T01:25:21;5.93;;;2.13;;
55292;SDS011;41157;53.560;10.098;2024-03-25T01:27:47;8.60;;;2.33;;
55292;SDS011;41157;53.560;10.098;2024-03-25T01:30:14;6.60;;;2.20;;
55292;SDS011;41157;53.560;10.098;2024-03-25T01:32:40;5.00;;;1.97;;
55292;SDS011;41157;53.560;10.098;2024-03-25T01:35:08;6.13;;;2.40;;
55292;SDS011;41157;53.560;10.098;2024-03-25T01:37:34;6.27;;;2.20;;
55292;SDS011;41157;53.560;10.098;2024-03-25T01:40:01;10.50;;;2.53;;
55292;SDS011;41157;53.560;10.098;2024-03-25T01:42:30;9.10;;;2.33;;
55292;SDS011;41157;53.560;10.098;2024-03-25T01:44:57;9.37;;;2.27;;
55292;SDS011;41157;53.560;10.098;2024-03-25T01:47:23;7.00;;;2.03;;
55292;SDS011;41157;53.560;10.098;2024-03-25T01:49:51;6.57;;;2.13;;
55292;SDS011;41157;53.560;10.098;2024-03-25T01:52:18;9.57;;;2.27;;
55292;SDS011;41157;53.560;10.098;2024-03-25T01:54:47;3.97;;;2.10;;
55292;SDS011;41157;53.560;10.098;2024-03-25T01:57:14;8.53;;;2.77;;
55292;SDS011;41157;53.560;10.098;2024-03-25T01:59:42;7.20;;;2.33;;
55292;SDS011;41157;53.560;10.098;2024-03-25T02:02:09;8.33;;;2.70;;
55292;SDS011;41157;53.560;10.098;2024-03-25T02:04:36;8.00;;;2.60;;
55292;SDS011;41157;53.560;10.098;2024-03-25T02:07:03;3.90;;;2.33;;
55292;SDS011;41157;53.560;10.098;2024-03-25T02:09:30;5.90;;;2.60;;
55292;SDS011;41157;53.560;10.098;2024-03-25T02:11:57;7.50;;;3.00;;
55292;SDS011;41157;53.560;10.098;2024-03-25T02:14:24;11.07;;;2.60;;
55292;SDS011;41157;53.560;10.098;2024-03-25T02:16:51;7.03;;;2.50;;
55292;SDS011;41157;53.560;10.098;2024-03-25T02:19:18;6.93;;;3.13;;
55292;SDS011;41157;53.560;10.098;2024-03-25T02:21:44;4.27;;;2.90;;
55292;SDS011;41157;53.560;10.098;2024-03-25T02:24:12;6.50;;;2.60;;
55292;SDS011;41157;53.560;10.098;2024-03-25T02:26:41;4.60;;;2.67;;
55292;SDS011;41157;53.560;10.098;2024-03-25T02:29:08;6.63;;;3.03;;
55292;SDS011;41157;53.560;10.098;2024-03-25T02:31:34;10.30;;;2.80;;
55292;SDS011;41157;53.560;10.098;2024-03-25T02:34:02;6.80;;;2.60;;
55292;SDS011;41157;53.560;10.098;2024-03-25T02:36:28;4.20;;;2.23;;
55292;SDS011;41157;53.560;10.098;2024-03-25T02:38:55;6.00;;;2.30;;
55292;SDS011;41157;53.560;10.098;2024-03-25T02:41:21;3.53;;;1.80;;
55292;SDS011;41157;53.560;10.098;2024-03-25T02:43:50;4.03;;;1.80;;
55292;SDS011;41157;53.560;10.098;2024-03-25T02:46:16;3.00;;;1.80;;
55292;SDS011;41157;53.560;10.098;2024-03-25T02:48:45;2.67;;;1.40;;
55292;SDS011;41157;53.560;10.098;2024-03-25T02:51:11;2.00;;;1.70;;
55292;SDS011;41157;53.560;10.098;2024-03-25T02:53:38;1.80;;;1.13;;
55292;SDS011;41157;53.560;10.098;2024-03-25T02:56:04;6.20;;;1.67;;
55292;SDS011;41157;53.560;10.098;2024-03-25T02:58:31;2.70;;;1.30;;
55292;SDS011;41157;53.560;10.098;2024-03-25T03:00:59;2.20;;;1.33;;
55292;SDS011;41157;53.560;10.098;2024-03-25T03:03:26;2.00;;;1.43;;
55292;SDS011;41157;53.560;10.098;2024-03-25T03:05:52;3.23;;;1.57;;
55292;SDS011;41157;53.560;10.098;2024-03-25T03:08:19;4.57;;;1.90;;
55292;SDS011;41157;53.560;10.098;2024-03-25T03:10:45;5.50;;;1.90;;
55292;SDS011;41157;53.560;10.098;2024-03-25T03:13:12;3.20;;;1.80;;
55292;SDS011;41157;53.560;10.098;2024-03-25T03:15:38;6.80;;;1.80;;
55292;SDS011;41157;53.560;10.098;2024-03-25T03:18:11;7.07;;;2.07;;
55292;SDS011;41157;53.560;10.098;2024-03-25T03:20:37;7.90;;;2.10;;
55292;SDS011;41157;53.560;10.098;2024-03-25T03:23:04;4.20;;;1.93;;
55292;SDS011;41157;53.560;10.098;2024-03-25T03:25:30;6.10;;;2.30;;
55292;SDS011;41157;53.560;10.098;2024-03-25T03:27:57;5.03;;;1.87;;
55292;SDS011;41157;53.560;10.098;2024-03-25T03:30:24;3.10;;;1.77;;
55292;SDS011;41157;53.560;10.098;2024-03-25T03:32:51;7.67;;;2.07;;
55292;SDS011;41157;53.560;10.098;2024-03-25T03:35:18;7.20;;;1.83;;
55292;SDS011;41157;53.560;10.098;2024-03-25T03:37:45;9.30;;;2.27;;
55292;SDS011;41157;53.560;10.098;2024-03-25T03:40:11;6.57;;;1.80;;
55292;SDS011;41157;53.560;10.098;2024-03-25T03:42:39;5.73;;;1.87;;
55292;SDS011;41157;53.560;10.098;2024-03-25T03:45:07;4.87;;;1.90;;
55292;SDS011;41157;53.560;10.098;2024-03-25T03:47:34;5.70;;;1.77;;
55292;SDS011;41157;53.560;10.098;2024-03-25T03:50:00;7.23;;;1.70;;
55292;SDS011;41157;53.560;10.098;2024-03-25T03:52:28;8.77;;;1.67;;
55292;SDS011;41157;53.560;10.098;2024-03-25T03:54:54;6.33;;;1.67;;
55292;SDS011;41157;53.560;10.098;2024-03-25T03:57:21;6.60;;;1.87;;
55292;SDS011;41157;53.560;10.098;2024-03-25T03:59:48;6.77;;;1.90;;
55292;SDS011;41157;53.560;10.098;2024-03-25T04:02:15;4.93;;;1.60;;
55292;SDS011;41157;53.560;10.098;2024-03-25T04:04:41;6.17;;;2.20;;
55292;SDS011;41157;53.560;10.098;2024-03-25T04:07:08;4.77;;;2.27;;
55292;SDS011;41157;53.560;10.098;2024-03-25T04:09:35;4.00;;;2.07;;
55292;SDS011;41157;53.560;10.098;2024-03-25T04:12:02;4.90;;;2.00;;
55292;SDS011;41157;53.560;10.098;2024-03-25T04:14:28;8.70;;;2.10;;
55292;SDS011;41157;53.560;10.098;2024-03-25T04:16:55;8.77;;;1.90;;
55292;SDS011;41157;53.560;10.098;2024-03-25T04:19:23;4.30;;;1.83;;
55292;SDS011;41157;53.560;10.098;2024-03-25T04:21:50;8.13;;;1.70;;
55292;SDS011;41157;53.560;10.098;2024-03-25T04:24:16;6.33;;;1.70;;
55292;SDS011;41157;53.560;10.098;2024-03-25T04:26:45;2.17;;;1.50;;
55292;SDS011;41157;53.560;10.098;2024-03-25T04:29:11;2.27;;;1.47;;
55292;SDS011;41157;53.560;10.098;2024-03-25T04:31:38;2.07;;;1.63;;
55292;SDS011;41157;53.560;10.098;2024-03-25T04:34:04;4.50;;;1.83;;
55292;SDS011;41157;53.560;10.098;2024-03-25T04:36:31;2.40;;;1.70;;
55292;SDS011;41157;53.560;10.098;2024-03-25T04:38:57;3.93;;;1.50;;
55292;SDS011;41157;53.560;10.098;2024-03-25T04:41:23;6.20;;;1.20;;
55292;SDS011;41157;53.560;10.098;2024-03-25T04:43:51;2.13;;;1.40;;
55292;SDS011;41157;53.560;10.098;2024-03-25T04:46:17;3.90;;;1.50;;
55292;SDS011;41157;53.560;10.098;2024-03-25T04:48:43;5.27;;;1.90;;
55292;SDS011;41157;53.560;10.098;2024-03-25T04:51:09;7.30;;;1.40;;
55292;SDS011;41157;53.560;10.098;2024-03-25T04:53:35;3.00;;;1.70;;
55292;SDS011;41157;53.560;10.098;2024-03-25T04:56:01;2.40;;;1.40;;
55292;SDS011;41157;53.560;10.098;2024-03-25T04:58:28;2.50;;;1.40;;
55292;SDS011;41157;53.560;10.098;2024-03-25T05:00:55;1.83;;;1.33;;
55292;SDS011;41157;53.560;10.098;2024-03-25T05:03:21;4.73;;;1.47;;
55292;SDS011;41157;53.560;10.098;2024-03-25T05:05:47;4.53;;;1.57;;
55292;SDS011;41157;53.560;10.098;2024-03-25T05:08:14;5.07;;;1.27;;
55292;SDS011;41157;53.560;10.098;2024-03-25T05:10:40;4.27;;;1.33;;
55292;SDS011;41157;53.560;10.098;2024-03-25T05:13:07;4.10;;;1.20;;
55292;SDS011;41157;53.560;10.098;2024-03-25T05:15:33;1.40;;;1.20;;
55292;SDS011;41157;53.560;10.098;2024-03-25T05:18:00;5.37;;;1.50;;
55292;SDS011;41157;53.560;10.098;2024-03-25T05:20:26;2.17;;;1.00;;
55292;SDS011;41157;53.560;10.098;2024-03-25T05:22:52;1.40;;;1.17;;
55292;SDS011;41157;53.560;10.098;2024-03-25T05:25:18;3.37;;;1.40;;
55292;SDS011;41157;53.560;10.098;2024-03-25T05:27:45;2.80;;;1.47;;
55292;SDS011;41157;53.560;10.098;2024-03-25T05:30:11;4.43;;;1.40;;
55292;SDS011;41157;53.560;10.098;2024-03-25T05:32:37;1.67;;;1.50;;
55292;SDS011;41157;53.560;10.098;2024-03-25T05:35:05;2.70;;;1.53;;
55292;SDS011;41157;53.560;10.098;2024-03-25T05:37:31;4.10;;;1.30;;
55292;SDS011;41157;53.560;10.098;2024-03-25T05:39:58;3.20;;;1.30;;
55292;SDS011;41157;53.560;10.098;2024-03-25T05:42:24;3.07;;;1.60;;
55292;SDS011;41157;53.560;10.098;2024-03-25T05:44:50;3.33;;;1.70;;
55292;SDS011;41157;53.560;10.098;2024-03-25T05:47:16;6.90;;;1.80;;
55292;SDS011;41157;53.560;10.098;2024-03-25T05:49:42;3.17;;;1.70;;
55292;SDS011;41157;53.560;10.098;2024-03-25T05:52:10;4.23;;;1.80;;
55292;SDS011;41157;53.560;10.098;2024-03-25T05:54:36;5.23;;;1.70;;
55292;SDS011;41157;53.560;10.098;2024-03-25T05:57:02;3.80;;;1.93;;
55292;SDS011;41157;53.560;10.098;2024-03-25T05:59:28;3.83;;;1.83;;
55292;SDS011;41157;53.560;10.098;2024-03-25T06:01:54;6.03;;;2.10;;
55292;SDS011;41157;53.560;10.098;2024-03-25T06:04:20;3.47;;;1.53;;
55292;SDS011;41157;53.560;10.098;2024-03-25T06:06:47;2.10;;;1.53;;
55292;SDS011;41157;53.560;10.098;2024-03-25T06:09:14;3.10;;;2.00;;
55292;SDS011;41157;53.560;10.098;2024-03-25T06:11:40;6.70;;;1.90;;
55292;SDS011;41157;53.560;10.098;2024-03-25T06:14:06;3.13;;;1.43;;
55292;SDS011;41157;53.560;10.098;2024-03-25T06:16:32;4.60;;;1.87;;
55292;SDS011;41157;53.560;10.098;2024-03-25T06:18:59;1.50;;;1.40;;
55292;SDS011;41157;53.560;10.098;2024-03-25T06:21:25;2.40;;;1.57;;
55292;SDS011;41157;53.560;10.098;2024-03-25T06:23:51;3.53;;;1.50;;
55292;SDS011;41157;53.560;10.098;2024-03-25T06:26:19;4.10;;;1.90;;
55292;SDS011;41157;53.560;10.098;2024-03-25T06:28:45;3.70;;;2.00;;
55292;SDS011;41157;53.560;10.098;2024-03-25T06:31:11;6.47;;;1.63;;
55292;SDS011;41157;53.560;10.098;2024-03-25T06:33:56;3.77;;;1.40;;
55292;SDS011;41157;53.560;10.098;2024-03-25T06:36:40;6.30;;;1.83;;
55292;SDS011;41157;53.560;10.098;2024-03-25T06:39:06;2.40;;;1.60;;
55292;SDS011;41157;53.560;10.098;2024-03-25T06:41:34;5.83;;;1.63;;
55292;SDS011;41157;53.560;10.098;2024-03-25T06:44:00;5.83;;;1.70;;
55292;SDS011;41157;53.560;10.098;2024-03-25T06:46:26;3.03;;;1.90;;
55292;SDS011;41157;53.560;10.098;2024-03-25T06:48:52;3.27;;;1.60;;
55292;SDS011;41157;53.560;10.098;2024-03-25T06:51:18;4.20;;;1.63;;
55292;SDS011;41157;53.560;10.098;2024-03-25T06:53:44;4.27;;;1.87;;
55292;SDS011;41157;53.560;10.098;2024-03-25T06:56:11;2.73;;;1.77;;
55292;SDS011;41157;53.560;10.098;2024-03-25T06:58:39;2.03;;;1.60;;
55292;SDS011;41157;53.560;10.098;2024-03-25T07:01:06;2.43;;;1.70;;
55292;SDS011;41157;53.560;10.098;2024-03-25T07:03:32;3.70;;;1.50;;
55292;SDS011;41157;53.560;10.098;2024-03-25T07:05:59;2.13;;;1.43;;
55292;SDS011;41157;53.560;10.098;2024-03-25T07:08:25;2.67;;;1.63;;
55292;SDS011;41157;53.560;10.098;2024-03-25T07:10:52;3.20;;;1.30;;
55292;SDS011;41157;53.560;10.098;2024-03-25T07:13:18;3.13;;;1.33;;
55292;SDS011;41157;53.560;10.098;2024-03-25T07:15:46;2.20;;;1.37;;
55292;SDS011;41157;53.560;10.098;2024-03-25T07:18:12;7.73;;;1.70;;
55292;SDS011;41157;53.560;10.098;2024-03-25T07:20:38;2.37;;;1.80;;
55292;SDS011;41157;53.560;10.098;2024-03-25T07:23:04;2.83;;;1.40;;
55292;SDS011;41157;53.560;10.098;2024-03-25T07:25:31;3.70;;;1.70;;
55292;SDS011;41157;53.560;10.098;2024-03-25T07:27:57;6.27;;;1.90;;
55292;SDS011;41157;53.560;10.098;2024-03-25T07:30:23;7.33;;;1.90;;
55292;SDS011;41157;53.560;10.098;2024-03-25T07:32:51;3.07;;;1.60;;
55292;SDS011;41157;53.560;10.098;2024-03-25T07:35:17;2.93;;;1.83;;
55292;SDS011;41157;53.560;10.098;2024-03-25T07:37:43;2.77;;;1.80;;
55292;SDS011;41157;53.560;10.098;2024-03-25T07:40:09;4.13;;;1.33;;
55292;SDS011;41157;53.560;10.098;2024-03-25T07:42:36;2.80;;;1.20;;
55292;SDS011;41157;53.560;10.098;2024-03-25T07:45:02;6.80;;;2.13;;
55292;SDS011;41157;53.560;10.098;2024-03-25T07:47:28;6.17;;;1.47;;
55292;SDS011;41157;53.560;10.098;2024-03-25T07:49:56;5.27;;;1.50;;
55292;SDS011;41157;53.560;10.098;2024-03-25T07:52:22;5.33;;;1.70;;
55292;SDS011;41157;53.560;10.098;2024-03-25T07:54:48;5.97;;;1.80;;
55292;SDS011;41157;53.560;10.098;2024-03-25T07:57:14;3.97;;;2.00;;
55292;SDS011;41157;53.560;10.098;2024-03-25T07:59:40;5.47;;;1.87;;
55292;SDS011;41157;53.560;10.098;2024-03-25T08:02:06;4.80;;;1.70;;
55292;SDS011;41157;53.560;10.098;2024-03-25T08:04:33;5.27;;;1.60;;
55292;SDS011;41157;53.560;10.098;2024-03-25T08:07:00;4.23;;;1.30;;
55292;SDS011;41157;53.560;10.098;2024-03-25T08:09:26;3.90;;;1.73;;
55292;SDS011;41157;53.560;10.098;2024-03-25T08:11:53;6.50;;;1.90;;
55292;SDS011;41157;53.560;10.098;2024-03-25T08:14:19;5.37;;;1.50;;
55292;SDS011;41157;53.560;10.098;2024-03-25T08:16:45;7.10;;;1.70;;
55292;SDS011;41157;53.560;10.098;2024-03-25T08:19:11;2.10;;;1.20;;
55292;SDS011;41157;53.560;10.098;2024-03-25T08:21:37;3.37;;;1.60;;
55292;SDS011;41157;53.560;10.098;2024-03-25T08:24:05;5.27;;;2.07;;
55292;SDS011;41157;53.560;10.098;2024-03-25T08:26:31;6.90;;;2.30;;
55292;SDS011;41157;53.560;10.098;2024-03-25T08:28:57;2.13;;;1.37;;
55292;SDS011;41157;53.560;10.098;2024-03-25T08:31:23;9.67;;;2.17;;
55292;SDS011;41157;53.560;10.098;2024-03-25T08:33:50;9.83;;;2.07;;
55292;SDS011;41157;53.560;10.098;2024-03-25T08:36:16;5.17;;;1.80;;
55292;SDS011;41157;53.560;10.098;2024-03-25T08:38:42;6.73;;;2.03;;
55292;SDS011;41157;53.560;10.098;2024-03-25T08:41:10;6.50;;;2.10;;
55292;SDS011;41157;53.560;10.098;2024-03-25T08:43:36;6.47;;;2.17;;
55292;SDS011;41157;53.560;10.098;2024-03-25T08:46:02;5.90;;;2.07;;
55292;SDS011;41157;53.560;10.098;2024-03-25T08:48:28;7.60;;;1.90;;
55292;SDS011;41157;53.560;10.098;2024-03-25T08:50:55;10.47;;;1.90;;
55292;SDS011;41157;53.560;10.098;2024-03-25T08:53:21;5.70;;;2.40;;
55292;SDS011;41157;53.560;10.098;2024-03-25T08:55:47;5.43;;;2.27;;
55292;SDS011;41157;53.560;10.098;2024-03-25T08:58:15;7.37;;;1.87;;
55292;SDS011;41157;53.560;10.098;2024-03-25T09:00:42;8.07;;;1.77;;
55292;SDS011;41157;53.560;10.098;2024-03-25T09:03:08;12.47;;;1.97;;
55292;SDS011;41157;53.560;10.098;2024-03-25T09:05:35;4.53;;;1.40;;
55292;SDS011;41157;53.560;10.098;2024-03-25T09:08:02;7.77;;;2.13;;
55292;SDS011;41157;53.560;10.098;2024-03-25T09:10:28;9.93;;;2.67;;
55292;SDS011;41157;53.560;10.098;2024-03-25T09:13:13;5.97;;;2.20;;
55292;SDS011;41157;53.560;10.098;2024-03-25T09:15:40;6.83;;;1.83;;
55292;SDS011;41157;53.560;10.098;2024-03-25T09:18:06;7.30;;;2.13;;
55292;SDS011;41157;53.560;10.098;2024-03-25T09:20:33;6.13;;;1.90;;
55292;SDS011;41157;53.560;10.098;2024-03-25T09:22:59;6.80;;;2.07;;
55292;SDS011;41157;53.560;10.098;2024-03-25T09:25:25;4.63;;;1.63;;
55292;SDS011;41157;53.560;10.098;2024-03-25T09:27:51;5.70;;;1.47;;
55292;SDS011;41157;53.560;10.098;2024-03-25T09:30:19;7.37;;;1.63;;
55292;SDS011;41157;53.560;10.098;2024-03-25T09:32:46;3.33;;;1.50;;
55292;SDS011;41157;53.560;10.098;2024-03-25T09:35:12;4.25;;;1.35;;
55292;SDS011;41157;53.560;10.098;2024-03-25T09:37:39;3.25;;;1.60;;
55292;SDS011;41157;53.560;10.098;2024-03-25T09:40:05;7.30;;;2.20;;
55292;SDS011;41157;53.560;10.098;2024-03-25T09:42:33;2.80;;;1.50;;
55292;SDS011;41157;53.560;10.098;2024-03-25T09:44:59;9.15;;;1.80;;
55292;SDS011;41157;53.560;10.098;2024-03-25T09:47:26;6.10;;;1.60;;
55292;SDS011;41157;53.560;10.098;2024-03-25T09:49:54;5.57;;;1.67;;
55292;SDS011;41157;53.560;10.098;2024-03-25T09:52:20;5.88;;;1.60;;
55292;SDS011;41157;53.560;10.098;2024-03-25T09:54:46;6.10;;;2.00;;
55292;SDS011;41157;53.560;10.098;2024-03-25T09:57:13;5.95;;;1.63;;
55292;SDS011;41157;53.560;10.098;2024-03-25T09:59:40;5.78;;;1.65;;
55292;SDS011;41157;53.560;10.098;2024-03-25T10:02:06;3.42;;;1.40;;
55292;SDS011;41157;53.560;10.098;2024-03-25T10:04:37;6.53;;;1.70;;
55292;SDS011;41157;53.560;10.098;2024-03-25T10:07:06;7.97;;;1.90;;
55292;SDS011;41157;53.560;10.098;2024-03-25T10:09:32;4.82;;;1.35;;
55292;SDS011;41157;53.560;10.098;2024-03-25T10:11:59;4.90;;;1.60;;
55292;SDS011;41157;53.560;10.098;2024-03-25T10:14:25;5.20;;;1.60;;
55292;SDS011;41157;53.560;10.098;2024-03-25T10:16:51;2.95;;;1.52;;
55292;SDS011;41157;53.560;10.098;2024-03-25T10:19:17;2.60;;;1.17;;
55292;SDS011;41157;53.560;10.098;2024-03-25T10:21:43;5.33;;;1.50;;
55292;SDS011;41157;53.560;10.098;2024-03-25T10:24:11;3.10;;;1.57;;
55292;SDS011;41157;53.560;10.098;2024-03-25T10:26:37;7.10;;;1.80;;
55292;SDS011;41157;53.560;10.098;2024-03-25T10:29:03;3.47;;;1.40;;
55292;SDS011;41157;53.560;10.098;2024-03-25T10:31:29;3.57;;;1.50;;
55292;SDS011;41157;53.560;10.098;2024-03-25T10:33:56;8.83;;;1.20;;
55292;SDS011;41157;53.560;10.098;2024-03-25T10:36:22;5.10;;;1.50;;
55292;SDS011;41157;53.560;10.098;2024-03-25T10:38:49;8.07;;;1.70;;
55292;SDS011;41157;53.560;10.098;2024-03-25T10:41:18;7.83;;;1.87;;
55292;SDS011;41157;53.560;10.098;2024-03-25T10:43:45;8.53;;;1.80;;
55292;SDS011;41157;53.560;10.098;2024-03-25T10:46:12;10.10;;;2.10;;
55292;SDS011;41157;53.560;10.098;2024-03-25T10:48:41;5.00;;;1.83;;
55292;SDS011;41157;53.560;10.098;2024-03-25T10:51:09;6.00;;;1.93;;
55292;SDS011;41157;53.560;10.098;2024-03-25T10:53:37;5.90;;;2.23;;
55292;SDS011;41157;53.560;10.098;2024-03-25T10:56:03;3.28;;;1.67;;
55292;SDS011;41157;53.560;10.098;2024-03-25T10:58:32;7.10;;;1.75;;
55292;SDS011;41157;53.560;10.098;2024-03-25T11:00:59;5.18;;;1.35;;
55292;SDS011;41157;53.560;10.098;2024-03-25T11:03:26;2.80;;;1.50;;
55292;SDS011;41157;53.560;10.098;2024-03-25T11:05:52;5.03;;;1.85;;
55292;SDS011;41157;53.560;10.098;2024-03-25T11:08:19;3.60;;;1.13;;
55292;SDS011;41157;53.560;10.098;2024-03-25T11:10:45;5.07;;;1.38;;
55292;SDS011;41157;53.560;10.098;2024-03-25T11:13:12;7.38;;;1.98;;
55292;SDS011;41157;53.560;10.098;2024-03-25T11:15:42;9.57;;;1.85;;
55292;SDS011;41157;53.560;10.098;2024-03-25T11:18:11;7.18;;;2.00;;
55292;SDS011;41157;53.560;10.098;2024-03-25T11:20:38;7.55;;;2.33;;
55292;SDS011;41157;53.560;10.098;2024-03-25T11:23:08;7.00;;;1.70;;
55292;SDS011;41157;53.560;10.098;2024-03-25T11:25:35;5.60;;;1.55;;
55292;SDS011;41157;53.560;10.098;2024-03-25T11:28:01;3.42;;;1.55;;
55292;SDS011;41157;53.560;10.098;2024-03-25T11:30:27;5.50;;;1.85;;
55292;SDS011;41157;53.560;10.098;2024-03-25T11:32:55;4.35;;;1.27;;
55292;SDS011;41157;53.560;10.098;2024-03-25T11:35:21;5.30;;;1.63;;
55292;SDS011;41157;53.560;10.098;2024-03-25T11:37:48;4.50;;;1.75;;
55292;SDS011;41157;53.560;10.098;2024-03-25T11:40:14;5.88;;;1.80;;
55292;SDS011;41157;53.560;10.098;2024-03-25T11:42:40;4.78;;;1.45;;
55292;SDS011;41157;53.560;10.098;2024-03-25T11:45:09;2.72;;;1.40;;
55292;SDS011;41157;53.560;10.098;2024-03-25T11:47:40;2.47;;;1.65;;
55292;SDS011;41157;53.560;10.098;2024-03-25T11:50:08;5.90;;;1.77;;
55292;SDS011;41157;53.560;10.098;2024-03-25T11:52:35;4.88;;;1.67;;
55292;SDS011;41157;53.560;10.098;2024-03-25T11:55:01;5.90;;;1.42;;
55292;SDS011;41157;53.560;10.098;2024-03-25T11:57:27;4.70;;;1.77;;
55292;SDS011;41157;53.560;10.098;2024-03-25T11:59:54;4.82;;;1.45;;
55292;SDS011;41157;53.560;10.098;2024-03-25T12:02:20;3.92;;;1.20;;
55292;SDS011;41157;53.560;10.098;2024-03-25T12:04:47;4.60;;;1.15;;
55292;SDS011;41157;53.560;10.098;2024-03-25T12:07:15;1.63;;;1.10;;
55292;SDS011;41157;53.560;10.098;2024-03-25T12:09:41;3.80;;;1.38;;
55292;SDS011;41157;53.560;10.098;2024-03-25T12:12:26;4.55;;;1.35;;
55292;SDS011;41157;53.560;10.098;2024-03-25T12:14:52;10.52;;;1.88;;
55292;SDS011;41157;53.560;10.098;2024-03-25T12:17:19;5.13;;;1.40;;
55292;SDS011;41157;53.560;10.098;2024-03-25T12:19:57;7.30;;;1.45;;
55292;SDS011;41157;53.560;10.098;2024-03-25T12:22:25;2.33;;;1.02;;
55292;SDS011;41157;53.560;10.098;2024-03-25T12:24:52;3.75;;;1.38;;
55292;SDS011;41157;53.560;10.098;2024-03-25T12:27:18;8.20;;;1.65;;
55292;SDS011;41157;53.560;10.098;2024-03-25T12:29:44;4.07;;;1.17;;
55292;SDS011;41157;53.560;10.098;2024-03-25T12:32:10;6.68;;;1.73;;
55292;SDS011;41157;53.560;10.098;2024-03-25T12:34:36;6.80;;;2.83;;
55292;SDS011;41157;53.560;10.098;2024-03-25T12:37:02;4.90;;;1.58;;
55292;SDS011;41157;53.560;10.098;2024-03-25T12:39:30;3.72;;;1.42;;
55292;SDS011;41157;53.560;10.098;2024-03-25T12:41:56;2.80;;;1.23;;
55292;SDS011;41157;53.560;10.098;2024-03-25T12:44:23;2.30;;;1.48;;
55292;SDS011;41157;53.560;10.098;2024-03-25T12:46:49;4.13;;;1.50;;
55292;SDS011;41157;53.560;10.098;2024-03-25T12:49:16;8.95;;;1.58;;
55292;SDS011;41157;53.560;10.098;2024-03-25T12:51:42;4.07;;;1.70;;
55292;SDS011;41157;53.560;10.098;2024-03-25T12:54:08;3.50;;;1.50;;
55292;SDS011;41157;53.560;10.098;2024-03-25T12:56:36;2.22;;;1.30;;
55292;SDS011;41157;53.560;10.098;2024-03-25T12:59:02;3.88;;;1.58;;
55292;SDS011;41157;53.560;10.098;2024-03-25T13:01:28;3.10;;;1.40;;
55292;SDS011;41157;53.560;10.098;2024-03-25T13:03:54;4.67;;;1.30;;
55292;SDS011;41157;53.560;10.098;2024-03-25T13:06:21;5.73;;;1.17;;
55292;SDS011;41157;53.560;10.098;2024-03-25T13:08:47;4.97;;;1.60;;
55292;SDS011;41157;53.560;10.098;2024-03-25T13:11:13;5.67;;;1.40;;
55292;SDS011;41157;53.560;10.098;2024-03-25T13:13:41;4.03;;;1.70;;
55292;SDS011;41157;53.560;10.098;2024-03-25T13:16:07;7.23;;;1.53;;
55292;SDS011;41157;53.560;10.098;2024-03-25T13:18:33;5.27;;;1.80;;
55292;SDS011;41157;53.560;10.098;2024-03-25T13:20:59;8.40;;;1.50;;
55292;SDS011;41157;53.560;10.098;2024-03-25T13:23:25;5.53;;;2.20;;
55292;SDS011;41157;53.560;10.098;2024-03-25T13:25:52;5.30;;;1.47;;
55292;SDS011;41157;53.560;10.098;2024-03-25T13:28:18;8.93;;;1.70;;
55292;SDS011;41157;53.560;10.098;2024-03-25T13:30:45;6.60;;;1.87;;
55292;SDS011;41157;53.560;10.098;2024-03-25T13:33:12;4.20;;;1.40;;
55292;SDS011;41157;53.560;10.098;2024-03-25T13:35:38;3.70;;;1.43;;
55292;SDS011;41157;53.560;10.098;2024-03-25T13:38:04;5.03;;;1.80;;
55292;SDS011;41157;53.560;10.098;2024-03-25T13:40:30;4.00;;;1.50;;
55292;SDS011;41157;53.560;10.098;2024-03-25T13:42:56;5.53;;;1.87;;
55292;SDS011;41157;53.560;10.098;2024-03-25T13:45:22;5.60;;;1.40;;
55292;SDS011;41157;53.560;10.098;2024-03-25T13:47:50;3.90;;;1.80;;
55292;SDS011;41157;53.560;10.098;2024-03-25T13:50:16;7.10;;;1.77;;
55292;SDS011;41157;53.560;10.098;2024-03-25T13:52:42;4.20;;;1.47;;
55292;SDS011;41157;53.560;10.098;2024-03-25T13:55:08;9.40;;;1.90;;
55292;SDS011;41157;53.560;10.098;2024-03-25T13:57:34;3.73;;;1.20;;
55292;SDS011;41157;53.560;10.098;2024-03-25T14:00:01;6.57;;;1.57;;
55292;SDS011;41157;53.560;10.098;2024-03-25T14:02:28;2.77;;;1.33;;
55292;SDS011;41157;53.560;10.098;2024-03-25T14:04:56;3.57;;;1.53;;
55292;SDS011;41157;53.560;10.098;2024-03-25T14:07:22;8.80;;;1.80;;
55292;SDS011;41157;53.560;10.098;2024-03-25T14:09:48;5.00;;;1.20;;
55292;SDS011;41157;53.560;10.098;2024-03-25T14:12:14;3.30;;;1.00;;
55292;SDS011;41157;53.560;10.098;2024-03-25T14:14:41;6.23;;;1.73;;
55292;SDS011;41157;53.560;10.098;2024-03-25T14:17:07;3.40;;;1.20;;
55292;SDS011;41157;53.560;10.098;2024-03-25T14:19:33;4.03;;;1.50;;
55292;SDS011;41157;53.560;10.098;2024-03-25T14:22:00;6.33;;;1.60;;
55292;SDS011;41157;53.560;10.098;2024-03-25T14:24:26;4.20;;;1.43;;
55292;SDS011;41157;53.560;10.098;2024-03-25T14:26:53;3.53;;;1.40;;
55292;SDS011;41157;53.560;10.098;2024-03-25T14:29:19;2.83;;;1.53;;
55292;SDS011;41157;53.560;10.098;2024-03-25T14:31:45;7.20;;;1.60;;